Startpagina
METAR-TAF:

METAR-TAF

Vliegvelden :

Funafuti, Tuvalu

breedte: 08-31S, lengte: 179-13E, hoogte: 1 m

Actueel weer

Dit bericht is 37 minuten geleden gemaakt, om 07:00 UTC
Wind 4 kt uit het noordoosten
Temperatuur 29°C
Vochtigheid 70%
Druk 1007 hPa
Zicht 10 km of meer
Weinig wolken op 2000 ft
Verspreide wolken op 31000 ft

METAR: NGFU 240700Z 04004KT 9999 FEW020 SCT310 29/23 Q1007

Tijdstip: 19:37 (07:37 UTC)

Verwachting

Dit bericht is 2 uur en het 18 minuten geleden gemaakt, om 05:19 UTC
Verwachting geldig van 24 om 06 UTC tot 25 om 06 UTC
Wind 8 kt uit het noorden
Zicht 10 km of meer
Verspreide wolken op 2000 ft

TAF: NGFU 240519Z 2406/2506 36008KT 9999 SCT020

Waarnemingen en weersverwachtingen van meer dan 4000 vliegvelden (METAR en TAF).

De beschikbare stations zijn de gele en rode punten op de kaart.

Ga met uw muis naar het station om de naam te zien.

Klik dan om waarnemingen en weersverwachtingen te zien.

kaart wijzigen: klik op de groene knoppen met een zwart kruis om in te zoomen, op de groene knop met een streepje om uit te zoomen of op de groene pijlen voor aangrenzende kaarten.


METAR-TAF: